createdAt,value
2018-02-02T00:00:00.940Z,100333.06
2018-02-02T00:02:29.882Z,100347.05
2018-02-02T00:04:59.119Z,100353.42
2018-02-02T00:07:29.827Z,100351.70
2018-02-02T00:09:59.779Z,100351.70
2018-02-02T00:12:29.743Z,100353.00
2018-02-02T00:15:01.929Z,100349.61
2018-02-02T00:17:31.160Z,100351.28
2018-02-02T00:20:00.273Z,100348.31
2018-02-02T00:22:29.243Z,100355.06
2018-02-02T00:24:59.443Z,100355.06
2018-02-02T00:27:28.950Z,100361.01
2018-02-02T00:30:04.392Z,100351.28
2018-02-02T00:32:33.938Z,100343.23
2018-02-02T00:35:03.915Z,100341.52
2018-02-02T00:37:34.734Z,100343.23
2018-02-02T00:40:04.811Z,100341.12
2018-02-02T00:42:34.203Z,100334.34
2018-02-02T00:45:04.757Z,100336.46
2018-02-02T00:47:33.588Z,100327.54
2018-02-02T00:50:02.588Z,100315.24
2018-02-02T00:52:33.057Z,100307.16
2018-02-02T00:55:02.009Z,100291.92
2018-02-02T00:57:30.990Z,100301.22
2018-02-02T00:59:59.985Z,100301.22
2018-02-02T01:02:29.078Z,100297.39
2018-02-02T01:04:58.304Z,100296.91
2018-02-02T01:07:29.313Z,100302.89
2018-02-02T01:09:59.236Z,100303.34
2018-02-02T01:12:29.151Z,100299.95
2018-02-02T01:14:59.200Z,100300.31
2018-02-02T01:17:29.218Z,100295.27
2018-02-02T01:19:58.211Z,100298.20
2018-02-02T01:22:28.857Z,100292.23
2018-02-02T01:24:57.937Z,100286.33
2018-02-02T01:27:26.938Z,100291.37
2018-02-02T01:29:56.706Z,100290.12
2018-02-02T01:32:41.065Z,100290.95
2018-02-02T01:35:11.786Z,100287.92
2018-02-02T01:37:41.535Z,100296.89
2018-02-02T01:40:18.415Z,100292.27
2018-02-02T01:42:47.480Z,100286.38
2018-02-02T01:45:17.911Z,100280.03
2018-02-02T01:47:49.538Z,100282.09
2018-02-02T01:50:18.669Z,100281.22
2018-02-02T01:52:47.788Z,100285.00
2018-02-02T01:55:22.184Z,100274.87
2018-02-02T01:57:52.328Z,100278.31
2018-02-02T02:00:23.651Z,100280.39
2018-02-02T02:02:54.182Z,100275.37
2018-02-02T02:05:23.783Z,100268.97
2018-02-02T02:07:57.573Z,100281.70
2018-02-02T02:10:26.629Z,100278.80
2018-02-02T02:12:59.623Z,100273.36
2018-02-02T02:15:28.663Z,100281.05
2018-02-02T02:17:58.003Z,100271.83
2018-02-02T02:20:28.149Z,100284.95
2018-02-02T02:22:57.978Z,100288.33
2018-02-02T02:25:27.228Z,100280.72
2018-02-02T02:27:57.175Z,100276.52
2018-02-02T02:30:27.055Z,100274.39
2018-02-02T02:32:56.012Z,100282.41
2018-02-02T02:35:28.217Z,100283.69
2018-02-02T02:37:58.194Z,100279.45
2018-02-02T02:40:27.131Z,100274.81
2018-02-02T02:42:57.724Z,100276.92
2018-02-02T02:45:28.590Z,100282.83
2018-02-02T02:47:57.581Z,100282.39
2018-02-02T02:50:30.160Z,100284.09
2018-02-02T02:53:00.386Z,100285.80
2018-02-02T02:55:31.494Z,100289.17
2018-02-02T02:58:00.635Z,100289.17
2018-02-02T03:00:31.126Z,100296.34
2018-02-02T03:03:00.450Z,100289.59
2018-02-02T03:05:29.419Z,100293.81
2018-02-02T03:08:00.389Z,100290.44
2018-02-02T03:10:29.585Z,100280.70
2018-02-02T03:12:58.781Z,100280.30
2018-02-02T03:15:35.436Z,100282.41
2018-02-02T03:18:04.515Z,100292.98
2018-02-02T03:20:33.615Z,100295.08
2018-02-02T03:23:03.566Z,100279.86
2018-02-02T03:25:32.761Z,100293.81
2018-02-02T03:28:02.670Z,100287.08
2018-02-02T03:30:31.953Z,100294.66
2018-02-02T03:33:01.047Z,100280.29
2018-02-02T03:35:30.247Z,100279.02
2018-02-02T03:38:01.827Z,100283.66
2018-02-02T03:40:31.813Z,100279.04
2018-02-02T03:43:04.623Z,100281.14
2018-02-02T03:45:33.688Z,100283.68
2018-02-02T03:48:02.888Z,100276.50
2018-02-02T03:50:33.682Z,100273.53
2018-02-02T03:53:10.398Z,100275.65
2018-02-02T03:55:40.657Z,100281.55
2018-02-02T03:58:13.798Z,100287.89
2018-02-02T04:00:43.652Z,100294.23
2018-02-02T04:03:14.615Z,100294.63
2018-02-02T04:05:43.592Z,100285.28
2018-02-02T04:08:13.435Z,100291.58
2018-02-02T04:10:42.451Z,100295.36
2018-02-02T04:13:12.742Z,100294.47
2018-02-02T04:15:44.405Z,100298.67
2018-02-02T04:18:14.283Z,100304.94
2018-02-02T04:20:43.356Z,100302.81
2018-02-02T04:23:12.712Z,100307.84
2018-02-02T04:25:41.860Z,100300.58
2018-02-02T04:28:11.639Z,100311.64
2018-02-02T04:30:42.713Z,100303.98
2018-02-02T04:33:12.664Z,100306.50
2018-02-02T04:35:42.481Z,100310.77
2018-02-02T04:38:14.160Z,100303.16
2018-02-02T04:40:45.758Z,100305.67
2018-02-02T04:43:16.979Z,100296.34
2018-02-02T04:45:46.915Z,100308.23
2018-02-02T04:48:16.218Z,100311.20
2018-02-02T04:50:46.380Z,100309.95
2018-02-02T04:53:15.353Z,100299.77
2018-02-02T04:55:44.453Z,100301.48
2018-02-02T04:58:14.298Z,100298.06
2018-02-02T05:00:43.516Z,100298.06
2018-02-02T05:06:14.873Z,100296.84
2018-02-02T05:08:45.517Z,100295.55
2018-02-02T05:11:14.307Z,100300.63
2018-02-02T05:13:43.088Z,100304.47
2018-02-02T05:16:12.912Z,100304.03
2018-02-02T05:18:41.823Z,100304.46
2018-02-02T05:21:10.731Z,100302.31
2018-02-02T05:23:39.611Z,100301.86
2018-02-02T05:26:08.482Z,100299.75
2018-02-02T05:28:37.254Z,100305.69
2018-02-02T05:31:06.156Z,100305.25
2018-02-02T05:33:34.997Z,100301.91
2018-02-02T05:36:03.887Z,100315.00
2018-02-02T05:38:34.361Z,100319.22
2018-02-02T05:41:04.160Z,100315.44
2018-02-02T05:43:33.074Z,100320.50
2018-02-02T05:46:02.784Z,100323.07
2018-02-02T05:48:31.594Z,100318.03
2018-02-02T05:51:00.459Z,100317.98
2018-02-02T05:53:32.961Z,100315.94
2018-02-02T05:56:02.012Z,100311.27
2018-02-02T05:58:31.085Z,100314.66
2018-02-02T06:01:01.693Z,100310.47
2018-02-02T06:03:30.716Z,100310.11
2018-02-02T06:06:00.424Z,100304.95
2018-02-02T06:08:31.260Z,100309.58
2018-02-02T06:11:01.583Z,100298.97
2018-02-02T06:13:30.660Z,100295.59
2018-02-02T06:16:00.598Z,100295.53
2018-02-02T06:18:31.329Z,100299.78
2018-02-02T06:21:00.586Z,100294.68
2018-02-02T06:23:29.623Z,100292.06
2018-02-02T06:25:58.703Z,100299.61
2018-02-02T06:28:27.997Z,100294.06
2018-02-02T06:31:00.733Z,100290.61
2018-02-02T06:33:29.838Z,100278.73
2018-02-02T06:35:58.892Z,100274.82
2018-02-02T06:38:30.656Z,100270.09
2018-02-02T06:41:00.267Z,100273.50
2018-02-02T06:43:29.465Z,100285.31
2018-02-02T06:46:01.085Z,100276.81
2018-02-02T06:48:30.146Z,100278.88
2018-02-02T06:51:02.835Z,100287.23
2018-02-02T06:53:31.822Z,100285.86
2018-02-02T06:56:00.885Z,100289.53
2018-02-02T06:58:36.430Z,100296.72
2018-02-02T07:01:06.500Z,100303.48
2018-02-02T07:03:35.682Z,100297.45
2018-02-02T07:06:05.460Z,100307.14
2018-02-02T07:08:35.101Z,100311.27
2018-02-02T07:11:04.199Z,100318.77
2018-02-02T07:13:34.286Z,100323.02
2018-02-02T07:16:04.025Z,100329.34
2018-02-02T07:18:34.761Z,100333.55
2018-02-02T07:21:06.248Z,100330.06
2018-02-02T07:23:35.379Z,100328.30
2018-02-02T07:26:05.339Z,100329.61
2018-02-02T07:28:35.168Z,100328.67
2018-02-02T07:31:04.013Z,100335.78
2018-02-02T07:33:34.259Z,100331.41
2018-02-02T07:36:03.529Z,100330.17
2018-02-02T07:38:32.368Z,100334.81
2018-02-02T07:41:01.183Z,100336.38
2018-02-02T07:43:31.777Z,100340.18
2018-02-02T07:46:00.632Z,100339.34
2018-02-02T07:48:29.472Z,100339.33
2018-02-02T07:50:58.417Z,100333.75
2018-02-02T07:53:27.291Z,100331.53
2018-02-02T07:55:56.183Z,100326.73
2018-02-02T07:58:25.506Z,100335.56
2018-02-02T08:01:00.135Z,100331.58
2018-02-02T08:03:30.200Z,100324.70
2018-02-02T08:06:02.627Z,100320.37
2018-02-02T08:08:35.033Z,100317.86
2018-02-02T08:11:04.435Z,100316.54
2018-02-02T08:13:33.492Z,100309.73
2018-02-02T08:16:03.445Z,100315.97
2018-02-02T08:18:32.335Z,100316.71
2018-02-02T08:21:01.837Z,100308.96
2018-02-02T08:23:32.339Z,100307.57
2018-02-02T08:26:01.234Z,100307.90
2018-02-02T08:28:31.132Z,100306.16
2018-02-02T08:31:00.145Z,100312.89
2018-02-02T08:33:29.990Z,100312.39
2018-02-02T08:36:00.030Z,100313.27
2018-02-02T08:38:29.970Z,100320.92
2018-02-02T08:40:58.956Z,100322.98
2018-02-02T08:43:31.362Z,100332.31
2018-02-02T08:46:01.824Z,100329.16
2018-02-02T08:48:31.738Z,100333.34
2018-02-02T08:51:02.574Z,100330.94
2018-02-02T08:53:32.577Z,100328.36
2018-02-02T08:56:02.820Z,100332.44
2018-02-02T08:58:31.877Z,100319.53
2018-02-02T09:01:06.603Z,100322.92
2018-02-02T09:03:36.627Z,100326.26
2018-02-02T09:06:07.682Z,100319.02
2018-02-02T09:08:37.304Z,100332.39
2018-02-02T09:11:07.086Z,100323.75
2018-02-02T09:13:36.181Z,100323.16
2018-02-02T09:16:06.453Z,100317.44
2018-02-02T09:18:37.068Z,100318.02
2018-02-02T09:21:06.064Z,100312.02
2018-02-02T09:23:38.532Z,100319.49
2018-02-02T09:26:08.856Z,100317.09
2018-02-02T09:28:38.747Z,100310.52
2018-02-02T09:31:12.655Z,100306.06
2018-02-02T09:33:41.756Z,100310.91
2018-02-02T09:36:11.806Z,100301.80
2018-02-02T09:38:41.894Z,100300.06
2018-02-02T09:41:11.749Z,100297.77
2018-02-02T09:43:41.567Z,100285.23
2018-02-02T09:46:11.685Z,100295.19
2018-02-02T09:48:41.535Z,100289.77
2018-02-02T09:51:10.444Z,100278.95
2018-02-02T09:53:39.541Z,100279.19
2018-02-02T09:56:09.764Z,100277.80
2018-02-02T09:58:39.611Z,100278.34
2018-02-02T10:01:10.453Z,100265.29
2018-02-02T10:03:40.305Z,100275.43
2018-02-02T10:06:12.409Z,100275.06
2018-02-02T10:08:42.547Z,100270.23
2018-02-02T10:11:11.644Z,100265.73
2018-02-02T10:13:43.475Z,100259.72
2018-02-02T10:16:12.539Z,100256.05
2018-02-02T10:18:41.564Z,100255.88
2018-02-02T10:21:11.067Z,100251.34
2018-02-02T10:23:40.812Z,100246.72
2018-02-02T10:26:10.903Z,100242.77
2018-02-02T10:28:40.813Z,100240.11
2018-02-02T10:31:10.012Z,100226.53
2018-02-02T10:33:39.037Z,100220.17
2018-02-02T10:36:08.054Z,100227.55
2018-02-02T10:38:37.623Z,100219.17
2018-02-02T10:41:06.610Z,100215.42
2018-02-02T10:43:36.552Z,100203.63
2018-02-02T10:46:06.326Z,100195.02
2018-02-02T10:48:35.431Z,100189.14
2018-02-02T10:51:06.072Z,100186.52
2018-02-02T10:53:35.438Z,100186.77
2018-02-02T10:56:04.478Z,100175.09
2018-02-02T10:58:35.096Z,100177.13
2018-02-02T11:01:12.276Z,100173.44
2018-02-02T11:03:46.666Z,100177.39
2018-02-02T11:06:16.644Z,100169.43
2018-02-02T11:08:46.699Z,100163.43
2018-02-02T11:11:16.005Z,100150.46
2018-02-02T11:13:45.234Z,100156.73
2018-02-02T11:16:16.674Z,100158.36
2018-02-02T11:18:48.135Z,100152.17
2018-02-02T11:21:19.079Z,100152.87
2018-02-02T11:23:48.978Z,100146.84
2018-02-02T11:26:18.060Z,100147.84
2018-02-02T11:28:49.723Z,100150.78
2018-02-02T11:31:18.632Z,100156.03
2018-02-02T11:33:47.527Z,100152.41
2018-02-02T11:36:19.487Z,100151.73
2018-02-02T11:38:49.512Z,100155.59
2018-02-02T11:41:18.529Z,100155.31
2018-02-02T11:43:48.410Z,100152.41
2018-02-02T11:46:18.439Z,100148.97
2018-02-02T11:48:48.228Z,100147.62
2018-02-02T11:51:17.103Z,100147.98
2018-02-02T11:53:45.906Z,100148.77
2018-02-02T11:56:14.728Z,100147.44
2018-02-02T11:58:44.473Z,100128.89
2018-02-02T12:01:13.380Z,100131.53
2018-02-02T12:03:42.222Z,100131.27
2018-02-02T12:06:11.325Z,100130.53
2018-02-02T12:08:40.140Z,100131.96
2018-02-02T12:11:08.982Z,100131.87
2018-02-02T12:13:42.849Z,100131.11
2018-02-02T12:16:11.700Z,100130.14
2018-02-02T12:18:40.907Z,100127.80
2018-02-02T12:21:09.821Z,100126.22
2018-02-02T12:23:41.290Z,100125.63
2018-02-02T12:26:16.005Z,100124.85
2018-02-02T12:28:44.915Z,100126.44
2018-02-02T12:31:37.669Z,100137.61
2018-02-02T12:34:06.552Z,100137.69
2018-02-02T12:36:38.201Z,100144.36
2018-02-02T12:39:07.094Z,100143.52
2018-02-02T12:41:36.040Z,100153.80
2018-02-02T12:44:05.352Z,100152.73
2018-02-02T12:46:35.443Z,100160.72
2018-02-02T12:49:07.329Z,100161.09
2018-02-02T12:51:36.245Z,100159.24
2018-02-02T12:54:05.156Z,100154.95
2018-02-02T12:56:34.912Z,100157.02
2018-02-02T12:59:03.830Z,100161.29
2018-02-02T13:01:32.688Z,100162.20
2018-02-02T13:04:01.534Z,100162.57
2018-02-02T13:06:30.363Z,100163.30
2018-02-02T13:08:59.186Z,100164.73
2018-02-02T13:11:33.438Z,100170.61
2018-02-02T13:14:02.267Z,100178.61
2018-02-02T13:16:31.108Z,100187.24
2018-02-02T13:18:59.996Z,100172.86
2018-02-02T13:21:28.817Z,100183.42
2018-02-02T13:23:57.996Z,100169.22
2018-02-02T13:26:26.875Z,100176.59
2018-02-02T13:28:55.729Z,100175.36
2018-02-02T13:31:24.617Z,100167.33
2018-02-02T13:33:53.695Z,100174.34
2018-02-02T13:36:22.555Z,100175.81
2018-02-02T13:38:51.406Z,100183.73
2018-02-02T13:41:20.261Z,100173.30
2018-02-02T13:43:49.177Z,100175.34
2018-02-02T13:46:18.061Z,100168.12
2018-02-02T13:48:46.937Z,100165.27
2018-02-02T13:51:15.792Z,100163.17
2018-02-02T13:53:45.610Z,100166.48
2018-02-02T13:56:15.570Z,100170.52
2018-02-02T13:58:46.410Z,100176.02
2018-02-02T14:01:16.074Z,100175.89
2018-02-02T14:03:46.711Z,100170.76
2018-02-02T14:06:15.550Z,100169.72
2018-02-02T14:08:44.472Z,100161.20
2018-02-02T14:11:13.381Z,100170.62
2018-02-02T14:13:42.369Z,100178.17
2018-02-02T14:16:11.368Z,100180.00
2018-02-02T14:18:40.317Z,100176.56
2018-02-02T14:21:09.224Z,100178.86
2018-02-02T14:23:38.107Z,100196.58
2018-02-02T14:26:09.513Z,100198.20
2018-02-02T14:28:38.354Z,100198.32
2018-02-02T14:31:07.208Z,100199.20
2018-02-02T14:33:36.143Z,100199.84
2018-02-02T14:36:05.234Z,100194.16
2018-02-02T14:38:34.088Z,100188.33
2018-02-02T14:41:04.589Z,100187.48
2018-02-02T14:43:33.505Z,100190.22
2018-02-02T14:46:02.408Z,100188.22
2018-02-02T14:48:31.321Z,100181.52
2018-02-02T14:51:00.411Z,100176.72
2018-02-02T14:53:29.306Z,100184.92
2018-02-02T14:56:00.743Z,100179.66
2018-02-02T14:58:29.576Z,100179.55
2018-02-02T15:00:58.391Z,100182.38
2018-02-02T15:03:29.387Z,100179.13
2018-02-02T15:05:58.460Z,100175.43
2018-02-02T15:08:29.052Z,100176.86
2018-02-02T15:11:01.138Z,100170.70
2018-02-02T15:13:30.157Z,100170.39
2018-02-02T15:15:59.183Z,100172.64
2018-02-02T15:18:30.846Z,100178.22
2018-02-02T15:21:01.445Z,100176.67
2018-02-02T15:23:30.741Z,100170.35
2018-02-02T15:26:00.040Z,100164.35
2018-02-02T15:28:29.199Z,100168.53
2018-02-02T15:30:58.949Z,100166.08
2018-02-02T15:33:28.920Z,100178.92
2018-02-02T15:35:59.874Z,100179.05
2018-02-02T15:38:34.863Z,100175.61
2018-02-02T15:41:04.744Z,100172.71
2018-02-02T15:43:37.333Z,100166.82
2018-02-02T15:46:06.545Z,100167.28
2018-02-02T15:48:36.841Z,100168.70
2018-02-02T15:51:06.907Z,100175.85
2018-02-02T15:53:35.867Z,100174.14
2018-02-02T15:56:05.867Z,100172.52
2018-02-02T15:58:36.058Z,100170.92
2018-02-02T16:01:05.202Z,100167.55
2018-02-02T16:03:34.350Z,100162.41
2018-02-02T16:06:06.572Z,100164.97
2018-02-02T16:08:36.189Z,100163.81
2018-02-02T16:11:05.313Z,100166.02
2018-02-02T16:13:37.914Z,100162.63
2018-02-02T16:16:07.878Z,100170.80
2018-02-02T16:18:37.071Z,100170.69
2018-02-02T16:21:08.618Z,100174.64
2018-02-02T16:23:39.496Z,100166.92
2018-02-02T16:26:08.588Z,100168.59
2018-02-02T16:28:40.370Z,100171.24
2018-02-02T16:31:09.861Z,100170.45
2018-02-02T16:33:38.912Z,100163.66
2018-02-02T16:36:10.250Z,100166.14
2018-02-02T16:38:39.410Z,100159.80
2018-02-02T16:41:09.164Z,100161.94
2018-02-02T16:43:39.234Z,100153.46
2018-02-02T16:46:08.410Z,100157.52
2018-02-02T16:48:38.416Z,100173.22
2018-02-02T16:51:12.633Z,100172.75
2018-02-02T16:53:41.771Z,100174.56
2018-02-02T16:56:11.662Z,100175.06
2018-02-02T16:58:43.410Z,100172.66
2018-02-02T17:01:12.784Z,100163.23
2018-02-02T17:03:42.715Z,100163.96
2018-02-02T17:06:12.227Z,100172.27
2018-02-02T17:08:42.376Z,100165.80
2018-02-02T17:11:12.831Z,100164.47
2018-02-02T17:13:43.175Z,100169.34
2018-02-02T17:16:12.535Z,100168.87
2018-02-02T17:18:42.770Z,100173.45
2018-02-02T17:21:12.597Z,100174.17
2018-02-02T17:23:42.723Z,100192.55
2018-02-02T17:26:11.902Z,100187.92
2018-02-02T17:28:41.576Z,100187.11
2018-02-02T17:31:11.577Z,100195.20
2018-02-02T17:33:41.898Z,100180.31
2018-02-02T17:36:12.207Z,100178.91
2018-02-02T17:38:42.989Z,100182.56
2018-02-02T17:41:13.111Z,100172.73
2018-02-02T17:43:46.931Z,100166.27
2018-02-02T17:46:16.211Z,100158.31
2018-02-02T17:48:45.693Z,100165.01
2018-02-02T17:51:15.721Z,100171.41
2018-02-02T17:53:44.956Z,100161.44
2018-02-02T17:56:14.117Z,100173.27
2018-02-02T17:58:44.332Z,100165.60
2018-02-02T18:04:22.187Z,100168.23
2018-02-02T18:06:51.265Z,100165.20
2018-02-02T18:09:21.304Z,100169.95
2018-02-02T18:11:51.406Z,100176.84
2018-02-02T18:14:20.594Z,100183.18
2018-02-02T18:16:50.924Z,100182.89
2018-02-02T18:19:25.756Z,100183.41
2018-02-02T18:21:55.112Z,100187.33
2018-02-02T18:24:26.219Z,100186.00
2018-02-02T18:26:56.357Z,100191.56
2018-02-02T18:29:25.742Z,100194.55
2018-02-02T18:31:55.336Z,100198.02
2018-02-02T18:34:27.968Z,100201.58
2018-02-02T18:36:57.917Z,100206.41
2018-02-02T18:39:28.054Z,100197.03
2018-02-02T18:41:59.025Z,100197.38
2018-02-02T18:44:28.397Z,100199.04
2018-02-02T18:46:57.634Z,100194.85
2018-02-02T18:49:29.396Z,100195.60
2018-02-02T18:51:58.639Z,100191.35
2018-02-02T18:54:28.568Z,100193.54
2018-02-02T18:56:58.074Z,100191.55
2018-02-02T18:59:27.463Z,100176.67
2018-02-02T19:01:57.408Z,100182.56
2018-02-02T19:04:27.622Z,100178.86
2018-02-02T19:06:56.997Z,100176.30
2018-02-02T19:09:26.523Z,100171.20
2018-02-02T19:11:56.802Z,100169.98
2018-02-02T19:14:26.867Z,100162.35
2018-02-02T19:16:56.968Z,100167.87
2018-02-02T19:19:26.875Z,100166.17
2018-02-02T19:21:57.786Z,100168.39
2018-02-02T19:24:33.752Z,100171.45
2018-02-02T19:27:04.516Z,100157.95
2018-02-02T19:29:34.890Z,100156.64
2018-02-02T19:32:04.066Z,100162.19
2018-02-02T19:34:33.445Z,100159.02
2018-02-02T19:37:02.923Z,100162.94
2018-02-02T19:39:33.391Z,100160.52
2018-02-02T19:42:03.198Z,100155.10
2018-02-02T19:44:34.354Z,100148.85
2018-02-02T19:47:04.653Z,100165.85
2018-02-02T19:49:33.949Z,100161.72
2018-02-02T19:52:03.384Z,100159.79
2018-02-02T19:54:33.252Z,100168.84
2018-02-02T19:57:06.086Z,100169.75
2018-02-02T19:59:36.105Z,100164.53
2018-02-02T20:02:07.217Z,100160.94
2018-02-02T20:04:36.547Z,100170.16
2018-02-02T20:07:06.856Z,100164.09
2018-02-02T20:09:37.236Z,100156.34
2018-02-02T20:12:10.299Z,100151.99
2018-02-02T20:14:40.617Z,100146.87
2018-02-02T20:17:11.531Z,100147.69
2018-02-02T20:19:41.837Z,100144.41
2018-02-02T20:22:11.398Z,100149.14
2018-02-02T20:24:42.952Z,100152.05
2018-02-02T20:27:12.732Z,100142.25
2018-02-02T20:29:41.779Z,100141.39
2018-02-02T20:32:13.467Z,100146.89
2018-02-02T20:34:42.417Z,100133.75
2018-02-02T20:37:13.780Z,100143.98
2018-02-02T20:39:43.326Z,100144.77
2018-02-02T20:42:14.093Z,100148.18
2018-02-02T20:44:45.928Z,100153.27
2018-02-02T20:47:15.242Z,100155.42
2018-02-02T20:49:44.653Z,100153.54
2018-02-02T20:52:14.733Z,100146.26
2018-02-02T20:54:44.181Z,100137.39
2018-02-02T20:57:13.821Z,100134.77
2018-02-02T20:59:43.267Z,100134.80
2018-02-02T21:02:12.669Z,100124.22
2018-02-02T21:04:42.126Z,100114.91
2018-02-02T21:07:13.923Z,100115.75
2018-02-02T21:09:44.784Z,100115.75
2018-02-02T21:12:14.206Z,100123.90
2018-02-02T21:14:44.426Z,100128.67
2018-02-02T21:17:13.495Z,100128.73
2018-02-02T21:19:43.665Z,100135.16
2018-02-02T21:22:13.211Z,100128.49
2018-02-02T21:24:42.342Z,100127.20
2018-02-02T21:27:14.200Z,100122.88
2018-02-02T21:29:44.197Z,100116.23
2018-02-02T21:32:13.626Z,100117.39
2018-02-02T21:34:43.670Z,100113.11
2018-02-02T21:37:12.805Z,100118.09
2018-02-02T21:39:42.035Z,100109.64
2018-02-02T21:42:13.271Z,100101.84
2018-02-02T21:44:44.327Z,100101.53
2018-02-02T21:47:13.480Z,100098.47
2018-02-02T21:49:44.445Z,100101.91
2018-02-02T21:52:13.652Z,100101.55
2018-02-02T21:54:45.585Z,100091.31
2018-02-02T21:57:14.900Z,100095.98
2018-02-02T21:59:44.664Z,100104.98
2018-02-02T22:02:13.755Z,100095.55
2018-02-02T22:04:42.988Z,100095.05
2018-02-02T22:07:11.969Z,100087.83
2018-02-02T22:09:41.455Z,100083.14
2018-02-02T22:12:10.530Z,100088.71
2018-02-02T22:14:40.037Z,100084.83
2018-02-02T22:17:10.194Z,100087.89
2018-02-02T22:19:39.297Z,100076.87
2018-02-02T22:22:08.258Z,100079.44
2018-02-02T22:24:38.900Z,100079.12
2018-02-02T22:27:08.214Z,100081.31
2018-02-02T22:29:37.528Z,100070.23
2018-02-02T22:32:07.657Z,100065.05
2018-02-02T22:34:37.659Z,100073.12
2018-02-02T22:37:07.107Z,100061.84
2018-02-02T22:39:36.952Z,100059.73
2018-02-02T22:42:07.774Z,100060.53
2018-02-02T22:44:40.098Z,100068.65
2018-02-02T22:47:09.018Z,100066.53
2018-02-02T22:49:39.153Z,100076.45
2018-02-02T22:52:11.729Z,100058.92
2018-02-02T22:54:40.737Z,100069.41
2018-02-02T22:57:09.718Z,100074.86
2018-02-02T22:59:41.076Z,100077.06
2018-02-02T23:02:11.501Z,100090.31
2018-02-02T23:04:40.702Z,100086.38
2018-02-02T23:07:10.616Z,100088.02
2018-02-02T23:09:39.531Z,100087.06
2018-02-02T23:12:08.502Z,100093.97
2018-02-02T23:14:38.446Z,100093.53
2018-02-02T23:17:08.636Z,100091.00
2018-02-02T23:19:37.561Z,100093.12
2018-02-02T23:22:08.322Z,100089.22
2018-02-02T23:24:38.288Z,100087.48
2018-02-02T23:27:08.517Z,100084.14
2018-02-02T23:29:41.192Z,100083.30
2018-02-02T23:32:11.512Z,100085.11
2018-02-02T23:34:42.206Z,100077.45
2018-02-02T23:37:12.468Z,100082.06
2018-02-02T23:39:42.253Z,100089.23
2018-02-02T23:42:11.275Z,100088.87
2018-02-02T23:44:43.564Z,100096.03
2018-02-02T23:47:17.556Z,100096.42
2018-02-02T23:49:47.508Z,100100.75
2018-02-02T23:52:17.655Z,100102.07
2018-02-02T23:54:47.555Z,100094.13
2018-02-02T23:57:16.733Z,100095.44
2018-02-02T23:59:46.404Z,100089.94
